createdAt,value
2023-05-08T00:01:03.292Z,17.05
2023-05-08T00:03:30.524Z,14.40
2023-05-08T00:05:57.852Z,13.88
2023-05-08T00:08:24.903Z,14.95
2023-05-08T00:10:51.853Z,15.10
2023-05-08T00:13:18.933Z,13.93
2023-05-08T00:15:46.079Z,12.30
2023-05-08T00:18:13.037Z,15.57
2023-05-08T00:20:39.980Z,14.00
2023-05-08T00:23:07.041Z,13.48
2023-05-08T00:25:34.137Z,14.20
2023-05-08T00:28:01.236Z,15.57
2023-05-08T00:30:28.175Z,14.48
2023-05-08T00:32:55.261Z,16.08
2023-05-08T00:35:22.589Z,17.52
2023-05-08T00:37:49.520Z,14.40
2023-05-08T00:40:16.548Z,13.02
2023-05-08T00:42:43.581Z,14.32
2023-05-08T00:45:10.981Z,12.80
2023-05-08T00:47:38.252Z,13.60
2023-05-08T00:50:05.752Z,14.25
2023-05-08T00:52:33.815Z,11.80
2023-05-08T00:55:02.959Z,13.35
2023-05-08T00:57:35.759Z,12.07
2023-05-08T01:00:04.688Z,12.30
2023-05-08T01:02:32.579Z,12.13
2023-05-08T01:05:00.107Z,12.82
2023-05-08T01:07:28.027Z,12.75
2023-05-08T01:09:55.104Z,16.10
2023-05-08T01:12:34.733Z,12.55
2023-05-08T01:15:16.959Z,12.13
2023-05-08T01:17:57.618Z,11.32
2023-05-08T01:20:38.170Z,14.45
2023-05-08T01:23:43.018Z,11.70
2023-05-08T01:26:36.422Z,15.35
2023-05-08T01:29:25.645Z,13.32
2023-05-08T01:32:23.918Z,12.55
2023-05-08T01:35:08.935Z,13.27
2023-05-08T01:40:35.231Z,13.20
2023-05-08T01:43:20.091Z,14.68
2023-05-08T01:45:50.143Z,11.48
2023-05-08T01:48:26.090Z,14.18
2023-05-08T01:51:02.430Z,14.20
2023-05-08T01:53:34.305Z,16.17
2023-05-08T01:56:08.068Z,15.63
2023-05-08T01:58:36.910Z,14.60
2023-05-08T02:01:04.109Z,13.85
2023-05-08T02:03:35.450Z,13.00
2023-05-08T02:06:03.390Z,15.02
2023-05-08T02:08:32.360Z,16.05
2023-05-08T02:11:01.787Z,16.60
2023-05-08T02:13:31.189Z,15.10
2023-05-08T02:15:59.525Z,16.52
2023-05-08T02:18:28.903Z,15.73
2023-05-08T02:20:56.865Z,15.40
2023-05-08T02:23:26.607Z,14.00
2023-05-08T02:25:54.389Z,15.60
2023-05-08T02:28:22.901Z,15.95
2023-05-08T02:30:51.853Z,15.27
2023-05-08T02:33:20.732Z,16.27
2023-05-08T02:35:50.858Z,14.70
2023-05-08T02:38:21.618Z,14.52
2023-05-08T02:40:54.642Z,19.17
2023-05-08T02:43:21.652Z,19.90
2023-05-08T02:46:08.870Z,21.38
2023-05-08T02:48:47.931Z,19.73
2023-05-08T02:51:28.355Z,23.10
2023-05-08T02:53:57.948Z,20.15
2023-05-08T02:56:58.184Z,20.45
2023-05-08T02:59:36.502Z,16.80
2023-05-08T03:02:15.699Z,16.85
2023-05-08T03:04:51.539Z,19.83
2023-05-08T03:07:23.148Z,22.73
2023-05-08T03:09:58.997Z,20.52
2023-05-08T03:12:30.855Z,21.75
2023-05-08T03:15:04.840Z,22.70
2023-05-08T03:17:35.348Z,17.80
2023-05-08T03:20:08.407Z,14.65
2023-05-08T03:22:37.537Z,14.52
2023-05-08T03:25:09.180Z,12.40
2023-05-08T03:27:36.946Z,10.95
2023-05-08T03:30:05.549Z,10.98
2023-05-08T03:32:34.924Z,10.77
2023-05-08T03:35:03.912Z,10.63
2023-05-08T03:37:31.029Z,11.02
2023-05-08T03:39:58.414Z,13.15
2023-05-08T03:42:26.712Z,11.27
2023-05-08T03:44:54.808Z,12.05
2023-05-08T03:47:22.490Z,11.20
2023-05-08T03:49:50.661Z,14.77
2023-05-08T03:52:17.852Z,13.25
2023-05-08T03:54:44.794Z,12.07
2023-05-08T03:57:11.779Z,12.07
2023-05-08T04:00:00.454Z,11.38
2023-05-08T04:03:09.065Z,12.27
2023-05-08T04:05:43.547Z,9.73
2023-05-08T04:08:17.510Z,10.32
2023-05-08T04:10:54.152Z,10.75
2023-05-08T04:13:28.417Z,10.88
2023-05-08T04:16:06.720Z,13.77
2023-05-08T04:18:38.696Z,16.95
2023-05-08T04:21:11.613Z,20.30
2023-05-08T04:23:42.433Z,19.10
2023-05-08T04:26:10.714Z,16.42
2023-05-08T04:28:37.698Z,17.25
2023-05-08T04:31:05.744Z,14.60
2023-05-08T04:33:35.294Z,13.48
2023-05-08T04:36:03.229Z,12.32
2023-05-08T04:38:30.841Z,11.43
2023-05-08T04:40:57.790Z,13.80
2023-05-08T04:43:25.346Z,14.57
2023-05-08T04:45:52.218Z,14.10
2023-05-08T04:48:19.373Z,14.07
2023-05-08T04:50:46.357Z,13.40
2023-05-08T04:53:13.556Z,15.55
2023-05-08T04:55:40.620Z,14.95
2023-05-08T04:58:07.560Z,14.00
2023-05-08T05:00:35.661Z,15.30
2023-05-08T05:03:02.625Z,19.73
2023-05-08T05:05:30.107Z,17.63
2023-05-08T05:07:57.506Z,17.90
2023-05-08T05:10:24.483Z,15.30
2023-05-08T05:12:51.526Z,16.58
2023-05-08T05:15:18.511Z,14.80
2023-05-08T05:17:45.575Z,16.63
2023-05-08T05:20:13.384Z,15.02
2023-05-08T05:22:40.744Z,13.38
2023-05-08T05:25:08.063Z,10.23
2023-05-08T05:27:36.985Z,10.63
2023-05-08T05:30:04.378Z,10.32
2023-05-08T05:32:31.588Z,12.85
2023-05-08T05:34:58.760Z,10.52
2023-05-08T05:37:25.955Z,12.20
2023-05-08T05:39:52.936Z,10.80
2023-05-08T05:42:19.879Z,11.25
2023-05-08T05:44:46.973Z,12.40
2023-05-08T05:47:14.185Z,13.98
2023-05-08T05:49:43.217Z,15.02
2023-05-08T05:52:10.216Z,15.07
2023-05-08T05:54:37.474Z,14.40
2023-05-08T05:57:04.849Z,16.08
2023-05-08T05:59:31.912Z,19.33
2023-05-08T06:01:59.037Z,18.30
2023-05-08T06:04:26.565Z,18.85
2023-05-08T06:06:53.630Z,19.63
2023-05-08T06:09:20.651Z,17.08
2023-05-08T06:11:47.871Z,16.17
2023-05-08T06:14:14.856Z,15.43
2023-05-08T06:16:41.865Z,17.05
2023-05-08T06:19:08.831Z,17.27
2023-05-08T06:21:35.941Z,17.20
2023-05-08T06:24:03.264Z,16.75
2023-05-08T06:26:30.135Z,16.23
2023-05-08T06:28:57.050Z,16.02
2023-05-08T06:31:24.079Z,17.63
2023-05-08T06:33:51.149Z,18.23
2023-05-08T06:36:18.379Z,16.20
2023-05-08T06:38:45.561Z,15.70
2023-05-08T06:41:15.097Z,20.13
2023-05-08T06:43:42.406Z,19.08
2023-05-08T06:46:09.433Z,18.35
2023-05-08T06:48:36.375Z,18.77
2023-05-08T06:51:03.712Z,19.08
2023-05-08T06:53:31.656Z,19.73
2023-05-08T06:55:58.881Z,20.30
2023-05-08T06:58:25.922Z,23.35
2023-05-08T07:00:52.897Z,22.25
2023-05-08T07:03:20.156Z,21.98
2023-05-08T07:05:47.065Z,21.60
2023-05-08T07:08:14.038Z,23.80
2023-05-08T07:10:41.088Z,22.83
2023-05-08T07:13:08.022Z,22.75
2023-05-08T07:15:35.031Z,23.27
2023-05-08T07:18:02.086Z,23.88
2023-05-08T07:20:29.176Z,22.50
2023-05-08T07:22:56.166Z,24.50
2023-05-08T07:25:23.294Z,25.05
2023-05-08T07:27:50.201Z,26.30
2023-05-08T07:30:17.143Z,26.05
2023-05-08T07:32:44.108Z,23.33
2023-05-08T07:35:13.018Z,23.92
2023-05-08T07:37:40.179Z,25.45
2023-05-08T07:40:07.723Z,26.65
2023-05-08T07:42:42.507Z,28.92
2023-05-08T07:45:11.899Z,26.95
2023-05-08T07:47:52.428Z,26.27
2023-05-08T07:50:20.393Z,25.83
2023-05-08T07:52:49.984Z,30.98
2023-05-08T07:55:18.514Z,26.15
2023-05-08T07:57:45.794Z,25.75
2023-05-08T08:00:15.071Z,25.60
2023-05-08T08:02:43.747Z,25.48
2023-05-08T08:05:11.319Z,24.85
2023-05-08T08:07:38.654Z,24.70
2023-05-08T08:10:06.231Z,24.17
2023-05-08T08:12:33.250Z,24.52
2023-05-08T08:15:00.153Z,22.58
2023-05-08T08:17:28.955Z,22.15
2023-05-08T08:19:57.203Z,21.48
2023-05-08T08:22:25.653Z,23.58
2023-05-08T08:24:54.986Z,23.23
2023-05-08T08:27:23.128Z,23.92
2023-05-08T08:29:52.633Z,23.27
2023-05-08T08:32:26.033Z,21.63
2023-05-08T08:34:52.968Z,20.52
2023-05-08T08:37:19.874Z,17.48
2023-05-08T08:39:48.370Z,16.13
2023-05-08T08:42:15.607Z,17.27
2023-05-08T08:44:43.022Z,14.38
2023-05-08T08:47:14.407Z,16.55
2023-05-08T08:49:49.604Z,14.98
2023-05-08T08:52:50.521Z,13.43
2023-05-08T08:55:18.653Z,13.80
2023-05-08T08:58:12.180Z,10.20
2023-05-08T09:00:40.337Z,11.52
2023-05-08T09:03:10.457Z,9.13
2023-05-08T09:05:38.737Z,11.35
2023-05-08T09:08:07.119Z,9.98
2023-05-08T09:10:36.304Z,11.27
2023-05-08T09:13:06.040Z,10.10
2023-05-08T09:15:36.008Z,7.57
2023-05-08T09:18:03.491Z,8.23
2023-05-08T09:20:30.710Z,7.43
2023-05-08T09:23:00.931Z,8.90
2023-05-08T09:25:44.521Z,9.80
2023-05-08T09:28:22.729Z,7.60
2023-05-08T09:30:55.385Z,7.18
2023-05-08T09:33:29.194Z,7.25
2023-05-08T09:35:57.476Z,7.40
2023-05-08T09:38:34.218Z,7.07
2023-05-08T09:41:07.677Z,5.80
2023-05-08T09:43:34.737Z,5.72
2023-05-08T09:46:22.380Z,5.55
2023-05-08T09:48:53.768Z,7.88
2023-05-08T09:51:21.813Z,5.75
2023-05-08T09:53:54.424Z,7.00
2023-05-08T09:56:34.311Z,6.63
2023-05-08T09:59:03.280Z,6.13
2023-05-08T10:01:36.885Z,6.47
2023-05-08T10:04:06.080Z,6.25
2023-05-08T10:06:33.469Z,5.80
2023-05-08T10:09:32.857Z,6.30
2023-05-08T10:12:06.805Z,6.80
2023-05-08T10:14:34.180Z,7.57
2023-05-08T10:17:07.854Z,7.07
2023-05-08T10:19:38.349Z,6.90
2023-05-08T10:22:06.135Z,7.00
2023-05-08T10:24:33.930Z,9.40
2023-05-08T10:27:28.113Z,7.15
2023-05-08T10:29:56.716Z,7.27
2023-05-08T10:32:25.226Z,6.72
2023-05-08T10:34:56.362Z,7.35
2023-05-08T10:37:23.534Z,7.00
2023-05-08T10:39:51.864Z,7.80
2023-05-08T10:42:19.785Z,8.45
2023-05-08T10:44:47.257Z,6.55
2023-05-08T10:47:17.193Z,8.13
2023-05-08T10:50:21.503Z,7.82
2023-05-08T10:52:57.477Z,7.00
2023-05-08T10:55:32.422Z,7.32
2023-05-08T10:58:12.346Z,5.95
2023-05-08T11:01:07.850Z,8.25
2023-05-08T11:03:44.715Z,6.65
2023-05-08T11:06:12.508Z,7.05
2023-05-08T11:08:54.617Z,6.28
2023-05-08T11:11:28.701Z,6.28
2023-05-08T11:14:08.177Z,10.05
2023-05-08T11:16:53.745Z,6.45
2023-05-08T11:19:22.459Z,7.88
2023-05-08T11:22:13.960Z,6.43
2023-05-08T11:24:57.711Z,6.65
2023-05-08T11:27:51.318Z,5.80
2023-05-08T11:30:39.719Z,5.35
2023-05-08T11:33:09.526Z,5.90
2023-05-08T11:35:53.251Z,7.88
2023-05-08T11:38:25.797Z,6.30
2023-05-08T11:41:00.178Z,6.97
2023-05-08T11:46:01.425Z,5.95
2023-05-08T11:48:28.454Z,6.53
2023-05-08T11:50:56.118Z,6.90
2023-05-08T11:53:23.459Z,7.35
2023-05-08T11:55:53.485Z,7.22
2023-05-08T11:58:20.584Z,7.82
2023-05-08T12:00:48.597Z,7.38
2023-05-08T12:03:20.976Z,7.32
2023-05-08T12:05:49.989Z,7.53
2023-05-08T12:08:18.414Z,7.47
2023-05-08T12:10:58.249Z,11.88
2023-05-08T12:13:29.650Z,9.43
2023-05-08T12:15:58.488Z,9.40
2023-05-08T12:18:26.851Z,7.80
2023-05-08T12:20:57.386Z,8.95
2023-05-08T12:23:29.471Z,10.02
2023-05-08T12:26:00.402Z,9.68
2023-05-08T12:28:27.867Z,10.80
2023-05-08T12:30:54.988Z,7.20
2023-05-08T12:33:22.450Z,7.85
2023-05-08T12:35:49.747Z,7.63
2023-05-08T12:38:16.739Z,8.43
2023-05-08T12:40:50.000Z,8.20
2023-05-08T12:43:16.920Z,10.00
2023-05-08T12:45:43.832Z,13.20
2023-05-08T12:48:17.987Z,12.43
2023-05-08T12:50:46.367Z,12.25
2023-05-08T12:53:21.699Z,16.10
2023-05-08T12:56:02.719Z,13.90
2023-05-08T12:58:32.314Z,15.48
2023-05-08T13:01:06.619Z,15.60
2023-05-08T13:03:34.340Z,15.00
2023-05-08T13:06:01.519Z,15.68
2023-05-08T13:08:34.349Z,16.08
2023-05-08T13:11:02.674Z,15.27
2023-05-08T13:13:37.090Z,17.00
2023-05-08T13:18:33.175Z,14.25
2023-05-08T13:21:02.157Z,15.00
2023-05-08T13:23:29.412Z,12.40
2023-05-08T13:25:56.796Z,12.68
2023-05-08T13:28:24.046Z,14.30
2023-05-08T13:30:51.062Z,15.27
2023-05-08T13:33:18.290Z,12.70
2023-05-08T13:35:45.736Z,11.90
2023-05-08T13:38:12.764Z,13.77
2023-05-08T13:40:40.108Z,13.20
2023-05-08T13:43:07.186Z,11.80
2023-05-08T13:45:34.376Z,10.13
2023-05-08T13:48:01.544Z,13.32
2023-05-08T13:50:28.642Z,13.45
2023-05-08T13:52:55.676Z,11.52
2023-05-08T13:55:23.520Z,11.00
2023-05-08T13:57:51.032Z,11.77
2023-05-08T14:00:18.649Z,10.80
2023-05-08T14:02:46.337Z,11.80
2023-05-08T14:05:14.419Z,11.43
2023-05-08T14:07:41.829Z,17.13
2023-05-08T14:10:09.269Z,11.25
2023-05-08T14:12:37.663Z,9.10
2023-05-08T14:15:05.657Z,9.23
2023-05-08T14:17:32.787Z,9.75
2023-05-08T14:20:00.319Z,13.02
2023-05-08T14:22:27.385Z,9.00
2023-05-08T14:24:54.444Z,9.05
2023-05-08T14:27:21.859Z,9.90
2023-05-08T14:29:49.337Z,8.18
2023-05-08T14:32:16.666Z,8.40
2023-05-08T14:34:43.770Z,9.50
2023-05-08T14:37:11.571Z,7.07
2023-05-08T14:39:38.698Z,7.45
2023-05-08T14:42:22.010Z,8.13
2023-05-08T14:44:50.344Z,5.75
2023-05-08T14:47:17.893Z,5.10
2023-05-08T14:49:44.864Z,5.75
2023-05-08T14:52:11.868Z,5.20
2023-05-08T14:54:39.159Z,9.85
2023-05-08T14:57:06.487Z,6.07
2023-05-08T14:59:33.556Z,5.90
2023-05-08T15:02:00.914Z,7.03
2023-05-08T15:04:28.234Z,7.15
2023-05-08T15:06:55.267Z,6.20
2023-05-08T15:09:22.144Z,6.22
2023-05-08T15:11:49.105Z,7.13
2023-05-08T15:14:16.127Z,8.23
2023-05-08T15:16:43.112Z,7.00
2023-05-08T15:19:10.182Z,9.45
2023-05-08T15:21:37.037Z,5.93
2023-05-08T15:24:04.054Z,7.63
2023-05-08T15:26:31.420Z,5.07
2023-05-08T15:28:58.306Z,5.60
2023-05-08T15:31:25.203Z,7.47
2023-05-08T15:33:52.220Z,5.30
2023-05-08T15:36:19.587Z,5.93
2023-05-08T15:38:48.617Z,6.32
2023-05-08T15:41:15.731Z,6.38
2023-05-08T15:43:43.288Z,6.80
2023-05-08T15:46:10.420Z,9.07
2023-05-08T15:48:37.630Z,6.20
2023-05-08T15:51:04.515Z,8.07
2023-05-08T15:53:33.036Z,8.82
2023-05-08T15:56:00.116Z,8.38
2023-05-08T15:58:27.668Z,7.25
2023-05-08T16:00:54.633Z,5.90
2023-05-08T16:03:21.721Z,12.98
2023-05-08T16:05:49.048Z,6.30
2023-05-08T16:08:16.214Z,9.95
2023-05-08T16:10:43.358Z,6.35
2023-05-08T16:13:10.399Z,6.55
2023-05-08T16:15:37.437Z,8.73
2023-05-08T16:18:04.899Z,7.15
2023-05-08T16:20:33.582Z,6.57
2023-05-08T16:23:02.754Z,6.28
2023-05-08T16:25:29.838Z,7.35
2023-05-08T16:27:56.961Z,9.70
2023-05-08T16:30:24.124Z,9.02
2023-05-08T16:33:01.164Z,6.63
2023-05-08T16:35:29.662Z,10.88
2023-05-08T16:37:56.718Z,8.00
2023-05-08T16:40:23.698Z,8.77
2023-05-08T16:42:51.124Z,30.65
2023-05-08T16:45:18.188Z,9.45
2023-05-08T16:47:45.733Z,7.18
2023-05-08T16:50:12.992Z,8.40
2023-05-08T16:52:40.187Z,7.82
2023-05-08T16:55:07.944Z,6.55
2023-05-08T16:57:35.128Z,7.65
2023-05-08T17:00:02.513Z,8.52
2023-05-08T17:02:29.839Z,10.05
2023-05-08T17:04:57.047Z,11.82
2023-05-08T17:07:24.192Z,10.10
2023-05-08T17:09:56.625Z,10.30
2023-05-08T17:12:24.521Z,7.63
2023-05-08T17:14:52.423Z,7.55
2023-05-08T17:17:19.486Z,10.77
2023-05-08T17:19:46.416Z,10.75
2023-05-08T17:22:13.393Z,12.65
2023-05-08T17:24:40.284Z,9.77
2023-05-08T17:27:08.559Z,12.05
2023-05-08T17:29:36.050Z,7.93
2023-05-08T17:32:03.312Z,6.68
2023-05-08T17:34:30.328Z,8.75
2023-05-08T17:36:57.419Z,8.95
2023-05-08T17:39:24.490Z,7.63
2023-05-08T17:41:52.011Z,12.23
2023-05-08T17:44:19.404Z,7.60
2023-05-08T17:46:46.516Z,6.20
2023-05-08T17:49:14.740Z,8.48
2023-05-08T17:51:42.429Z,7.13
2023-05-08T17:54:09.471Z,8.13
2023-05-08T17:56:36.405Z,7.43
2023-05-08T17:59:03.398Z,9.38
2023-05-08T18:01:30.359Z,8.18
2023-05-08T18:03:57.944Z,10.90
2023-05-08T18:06:25.063Z,6.72
2023-05-08T18:08:52.201Z,7.95
2023-05-08T18:11:21.390Z,8.45
2023-05-08T18:13:49.263Z,7.65
2023-05-08T18:16:18.275Z,8.05
2023-05-08T18:18:45.544Z,7.05
2023-05-08T18:21:12.480Z,8.35
2023-05-08T18:23:39.553Z,7.65
2023-05-08T18:26:06.540Z,7.97
2023-05-08T18:28:36.028Z,8.68
2023-05-08T18:31:03.362Z,6.65
2023-05-08T18:33:30.697Z,7.75
2023-05-08T18:35:57.897Z,8.30
2023-05-08T18:38:25.139Z,8.70
2023-05-08T18:40:52.178Z,8.57
2023-05-08T18:43:19.063Z,7.97
2023-05-08T18:45:46.094Z,10.50
2023-05-08T18:48:13.309Z,9.70
2023-05-08T18:50:40.252Z,9.32
2023-05-08T18:53:07.265Z,8.90
2023-05-08T18:55:34.296Z,8.13
2023-05-08T18:58:01.467Z,9.38
2023-05-08T19:00:28.652Z,9.73
2023-05-08T19:02:56.094Z,9.32
2023-05-08T19:05:23.254Z,12.93
2023-05-08T19:07:50.197Z,13.50
2023-05-08T19:10:17.245Z,10.13
2023-05-08T19:12:44.427Z,9.50
2023-05-08T19:15:14.030Z,12.57
2023-05-08T19:17:41.819Z,9.00
2023-05-08T19:20:09.335Z,9.23
2023-05-08T19:22:36.404Z,15.07
2023-05-08T19:25:04.125Z,16.02
2023-05-08T19:27:32.245Z,12.00
2023-05-08T19:29:59.665Z,15.63
2023-05-08T19:32:27.731Z,12.68
2023-05-08T19:34:57.333Z,14.50
2023-05-08T19:37:24.960Z,11.20
2023-05-08T19:39:52.042Z,10.93
2023-05-08T19:42:19.021Z,10.93
2023-05-08T19:44:45.918Z,11.75
2023-05-08T19:47:13.512Z,13.35
2023-05-08T19:49:40.413Z,14.93
2023-05-08T19:52:07.521Z,14.20
2023-05-08T19:54:34.667Z,14.35
2023-05-08T19:57:02.090Z,16.88
2023-05-08T19:59:29.042Z,15.95
2023-05-08T20:01:56.400Z,14.57
2023-05-08T20:04:24.270Z,14.75
2023-05-08T20:06:51.218Z,13.60
2023-05-08T20:09:18.171Z,14.45
2023-05-08T20:11:46.427Z,14.80
2023-05-08T20:14:13.656Z,18.38
2023-05-08T20:16:42.063Z,19.45
2023-05-08T20:19:09.171Z,15.25
2023-05-08T20:21:36.446Z,15.05
2023-05-08T20:24:03.635Z,16.08
2023-05-08T20:26:30.939Z,13.13
2023-05-08T20:28:58.287Z,14.10
2023-05-08T20:31:27.639Z,14.50
2023-05-08T20:33:54.975Z,12.27
2023-05-08T20:36:22.088Z,17.15
2023-05-08T20:38:49.228Z,15.55
2023-05-08T20:41:16.430Z,19.50
2023-05-08T20:43:43.797Z,17.88
2023-05-08T20:46:10.991Z,17.52
2023-05-08T20:48:38.393Z,17.98
2023-05-08T20:51:05.435Z,19.95
2023-05-08T20:53:32.837Z,18.30
2023-05-08T20:56:03.949Z,16.13
2023-05-08T20:58:31.034Z,17.83
2023-05-08T21:00:58.148Z,16.17
2023-05-08T21:03:25.495Z,16.90
2023-05-08T21:05:53.114Z,18.35
2023-05-08T21:08:24.073Z,17.88
2023-05-08T21:10:51.936Z,21.65
2023-05-08T21:13:19.184Z,19.33
2023-05-08T21:15:50.371Z,19.50
2023-05-08T21:18:18.183Z,19.90
2023-05-08T21:20:49.820Z,20.83
2023-05-08T21:23:18.166Z,18.55
2023-05-08T21:25:48.918Z,18.33
2023-05-08T21:28:16.692Z,15.98
2023-05-08T21:30:44.894Z,18.23
2023-05-08T21:33:13.909Z,17.73
2023-05-08T21:35:41.822Z,18.17
2023-05-08T21:38:12.574Z,17.52
2023-05-08T21:40:39.832Z,17.65
2023-05-08T21:43:07.039Z,16.05
2023-05-08T21:45:34.088Z,17.00
2023-05-08T21:48:01.546Z,14.00
2023-05-08T21:50:28.671Z,15.07
2023-05-08T21:52:59.034Z,14.05
2023-05-08T21:55:26.027Z,13.27
2023-05-08T21:57:54.048Z,14.63
2023-05-08T22:00:22.203Z,16.58
2023-05-08T22:02:49.439Z,14.98
2023-05-08T22:05:16.699Z,16.50
2023-05-08T22:07:43.804Z,15.65
2023-05-08T22:10:11.657Z,16.52
2023-05-08T22:12:38.847Z,16.38
2023-05-08T22:15:14.862Z,17.35
2023-05-08T22:17:50.635Z,19.63
2023-05-08T22:20:18.220Z,17.42
2023-05-08T22:22:45.823Z,20.10
2023-05-08T22:25:13.204Z,17.95
2023-05-08T22:27:41.193Z,18.00
2023-05-08T22:30:08.660Z,16.55
2023-05-08T22:32:36.495Z,16.13
2023-05-08T22:35:03.847Z,16.95
2023-05-08T22:37:30.779Z,14.25
2023-05-08T22:39:57.628Z,16.08
2023-05-08T22:42:25.032Z,14.75
2023-05-08T22:44:52.039Z,14.32
2023-05-08T22:47:19.215Z,15.38
2023-05-08T22:49:46.449Z,13.50
2023-05-08T22:52:13.778Z,13.82
2023-05-08T22:54:40.753Z,16.50
2023-05-08T22:57:08.696Z,14.65
2023-05-08T22:59:36.626Z,14.50
2023-05-08T23:02:03.877Z,16.65
2023-05-08T23:04:31.029Z,17.17
2023-05-08T23:06:58.046Z,16.40
2023-05-08T23:09:25.522Z,16.55
2023-05-08T23:11:52.464Z,14.95
2023-05-08T23:14:19.419Z,17.48
2023-05-08T23:16:46.382Z,19.38
2023-05-08T23:19:13.392Z,15.10
2023-05-08T23:21:40.430Z,19.20
2023-05-08T23:24:07.890Z,18.33
2023-05-08T23:26:34.794Z,17.23
2023-05-08T23:29:01.829Z,16.00
2023-05-08T23:31:28.789Z,19.52
2023-05-08T23:33:55.931Z,16.83
2023-05-08T23:36:23.305Z,17.88
2023-05-08T23:38:50.595Z,16.65
2023-05-08T23:41:17.479Z,20.15
2023-05-08T23:43:44.430Z,20.75
2023-05-08T23:46:11.672Z,19.38
2023-05-08T23:48:38.922Z,18.02
2023-05-08T23:51:05.994Z,18.67
2023-05-08T23:53:33.121Z,17.27
2023-05-08T23:56:00.167Z,16.27
2023-05-08T23:58:27.225Z,15.73
